»·PEaware :: N1671Q KNYL-KBLH

N1671Q :: KNYL-KBLH

FLIGHT INFORMATION

Flight Status: Arrived
Operator: Privately registered:
United States
More flights under this callsign
Pilot: Gary H. (18965)
Aircraft: CESSNA 172 SKYHAWK
(C172)
More flights by this aircraft type
Origin: KNYL Yuma MCAS/Yuma Intl
United States
Destination: KBLH Blythe
United States
More flights between these airports :: More routes between these airports
Route: +
File this flight plan on PilotEdge
Remarks:
Altitude:
(Current/Filed)
0ft
Speed:
(Current/Filed)
0kts
Departed: 07-Jul-18 12:11 PM
Arrived: 07-Jul-18 01:00 PM
Distance/Time
Traveled:
58nm/0:49
Distance/Time
To Go:
Arrived

Flight Plot

Page will automatically refresh every two minutes.

Flight plan parsing failed; only flown route is shown


Map Options




Map Legend


Flown Route
Filed Route
Departure Airport
Arrival Airport
Navaid (VOR, NDB)
Fix

Horizontal Profiles

Position Reports

Time Latitude Longitude Heading Altitude Ground
Speed
07-Jul-18 12:01 32.660392 -114.610470 178 190ft 0kts
07-Jul-18 12:02 32.660392 -114.610470 178 190ft 0kts
07-Jul-18 12:03 32.660326 -114.609576 73 191ft 10kts
07-Jul-18 12:04 32.662001 -114.608224 92 191ft 11kts
07-Jul-18 12:05 32.662760 -114.605565 357 191ft 12kts
07-Jul-18 12:06 32.666489 -114.605606 358 194ft 13kts
07-Jul-18 12:07 32.667214 -114.605308 88 194ft 0kts
07-Jul-18 12:08 32.667214 -114.605308 88 194ft 0kts
07-Jul-18 12:09 32.667214 -114.605308 88 194ft 0kts
07-Jul-18 12:10 32.667214 -114.605308 88 194ft 0kts
07-Jul-18 12:11 32.666350 -114.603997 177 194ft 32kts
07-Jul-18 12:12 32.647970 -114.605091 170 752ft 75kts
07-Jul-18 12:13 32.653311 -114.585780 0 1312ft 109kts
07-Jul-18 12:14 32.682587 -114.590933 356 1963ft 107kts
07-Jul-18 12:15 32.712156 -114.593092 3 2563ft 106kts
07-Jul-18 12:16 32.741651 -114.595467 357 3127ft 106kts
07-Jul-18 12:17 32.770313 -114.599531 1 3281ft 105kts
07-Jul-18 12:18 32.799962 -114.601222 3 3366ft 107kts
07-Jul-18 12:19 32.829723 -114.602703 1 3466ft 107kts
07-Jul-18 12:20 32.859636 -114.605577 0 3507ft 107kts
07-Jul-18 12:21 32.889478 -114.607151 2 3517ft 107kts
07-Jul-18 12:22 32.919158 -114.608304 3 3559ft 104kts
07-Jul-18 12:23 32.948356 -114.610002 3 3595ft 104kts
07-Jul-18 12:24 32.978003 -114.611071 1 3570ft 108kts
07-Jul-18 12:25 33.008627 -114.613836 0 3526ft 110kts
07-Jul-18 12:26 33.039251 -114.618685 355 3502ft 112kts
07-Jul-18 12:27 33.069916 -114.622753 357 3481ft 111kts
07-Jul-18 12:28 33.100580 -114.624931 3 3483ft 110kts
07-Jul-18 12:29 33.131081 -114.626635 5 3474ft 111kts
07-Jul-18 12:30 33.161873 -114.625962 0 3472ft 112kts
07-Jul-18 12:31 33.193021 -114.628926 356 3491ft 112kts
07-Jul-18 12:32 33.224074 -114.632074 359 3497ft 115kts
07-Jul-18 12:33 33.255940 -114.634311 352 3502ft 114kts
07-Jul-18 12:34 33.288075 -114.634209 353 3446ft 118kts
07-Jul-18 12:35 33.319564 -114.638850 353 3466ft 113kts
07-Jul-18 12:36 33.350121 -114.639734 1 3549ft 110kts
07-Jul-18 12:37 33.380852 -114.639846 349 3531ft 118kts
07-Jul-18 12:38 33.410857 -114.653547 331 3519ft 116kts
07-Jul-18 12:39 33.437870 -114.675602 318 3399ft 121kts
07-Jul-18 12:40 33.469273 -114.688595 342 3243ft 126kts
07-Jul-18 12:41 33.503160 -114.697612 347 3089ft 128kts
07-Jul-18 12:42 33.536150 -114.711552 333 2864ft 126kts
07-Jul-18 12:43 33.569152 -114.714273 28 2530ft 121kts
07-Jul-18 12:44 33.603348 -114.705401 5 1466ft 131kts
07-Jul-18 12:45 33.632032 -114.700595 6 1220ft 83kts
07-Jul-18 12:46 33.644587 -114.714184 254 944ft 72kts
07-Jul-18 12:47 33.628344 -114.716720 180 406ft 41kts
07-Jul-18 12:48 33.611546 -114.716132 171 744ft 79kts
07-Jul-18 12:49 33.622371 -114.699963 352 1136ft 105kts
07-Jul-18 12:50 33.645561 -114.709649 273 968ft 78kts
07-Jul-18 12:51 33.630482 -114.716684 182 442ft 58kts
07-Jul-18 12:52 33.612776 -114.716921 186 666ft 83kts
07-Jul-18 12:53 33.609594 -114.699525 7 1069ft 111kts
07-Jul-18 12:54 33.637132 -114.698879 355 1342ft 89kts
07-Jul-18 12:55 33.642904 -114.716437 216 866ft 63kts
07-Jul-18 12:56 33.626692 -114.716709 183 398ft 46kts
07-Jul-18 12:57 33.608976 -114.709980 105 900ft 87kts
07-Jul-18 12:58 33.629227 -114.698656 3 1314ft 91kts
07-Jul-18 12:59 33.644443 -114.709621 272 1003ft 67kts
07-Jul-18 13:00 33.630004 -114.716748 180 428ft 52kts
07-Jul-18 13:01 33.622228 -114.716833 179 398ft 18kts
07-Jul-18 13:02 33.619081 -114.715683 95 396ft 11kts
07-Jul-18 13:03 33.616464 -114.715183 186 394ft 16kts

Navigation Log

Ident Type
Flight plan parsing failed, navigation log unavailable